Time;durP1;ratioP1;P1;durP2;ratioP2;P2;SDS_P1;SDS_P2;PMS_P1;PMS_P2;Temp;Humidity;BMP_temperature;BMP_pressure;BME280_temperature;BME280_humidity;BME280_pressure;Samples;Min_cycle;Max_cycle;Signal;HPM_P1;HPM_P2
2022/12/24 00:02:16;;;;;;;156.30;59.87;;;;;;;-141.97;90.26;47815.09;5044842;28;20924;-82
2022/12/24 00:04:42;;;;;;;153.13;61.53;;;;;;;-141.97;89.90;47745.88;5032397;28;20469;-82
2022/12/24 00:07:07;;;;;;;140.50;55.13;;;;;;;-141.97;90.12;47805.47;5015946;28;20265;-82
2022/12/24 00:09:33;;;;;;;144.33;54.27;;;;;;;-141.97;90.56;47822.78;5012811;28;20198;-83
2022/12/24 00:11:58;;;;;;;130.17;49.90;;;;;;;-141.97;90.25;47861.22;5012976;28;20171;-82
2022/12/24 00:14:24;;;;;;;139.77;54.80;;;;;;;-141.97;90.46;47874.69;5012512;28;20194;-82
2022/12/24 00:16:49;;;;;;;136.70;52.87;;;;;;;-141.97;90.33;47855.44;5015591;28;20162;-82
2022/12/24 00:19:14;;;;;;;143.10;53.40;;;;;;;-141.97;90.19;47859.28;5028429;28;20178;-83
2022/12/24 00:21:40;;;;;;;127.80;51.17;;;;;;;-141.97;90.23;47822.78;5019093;28;20173;-82
2022/12/24 00:24:05;;;;;;;138.33;52.17;;;;;;;-141.97;90.52;47826.63;5016617;28;20166;-82
2022/12/24 00:26:32;;;;;;;140.77;52.07;;;;;;;-141.97;90.61;47820.84;5013553;28;20171;-82
2022/12/24 00:28:58;;;;;;;124.87;50.87;;;;;;;-141.97;90.54;47872.75;5013818;28;20163;-83
2022/12/24 00:31:24;;;;;;;129.83;52.73;;;;;;;-141.97;91.19;47780.47;5014599;28;20406;-82
2022/12/24 00:33:49;;;;;;;140.10;54.90;;;;;;;-141.97;92.01;47822.78;5019785;28;20163;-82
2022/12/24 00:36:15;;;;;;;130.80;51.67;;;;;;;-141.97;92.69;47834.31;5028128;28;20214;-82
2022/12/24 00:38:41;;;;;;;129.03;51.50;;;;;;;-141.97;93.99;47845.84;5015563;28;20219;-82
2022/12/24 00:41:23;;;;;;;134.80;52.03;;;;;;;-141.97;95.10;47859.28;5013877;28;20698;-82
2022/12/24 00:44:10;;;;;;;135.60;54.27;;;;;;;-141.97;98.95;47847.75;5020250;28;20159;-83
2022/12/24 00:46:38;;;;;;;139.47;53.63;;;;;;;-141.97;99.66;47832.38;5019640;28;20518;-82
2022/12/24 00:49:05;;;;;;;134.83;56.40;;;;;;;-141.97;99.32;47820.84;5014614;28;20413;-82
2022/12/24 00:51:31;;;;;;;132.37;52.63;;;;;;;-141.97;99.06;47838.16;5015655;28;20441;-82
2022/12/24 00:53:57;;;;;;;132.67;53.97;;;;;;;-141.97;99.05;47815.09;5021490;28;20488;-82
2022/12/24 00:56:22;;;;;;;140.10;58.50;;;;;;;-141.97;99.15;47842.00;5015922;28;20449;-82
2022/12/24 00:58:48;;;;;;;154.53;58.73;;;;;;;-141.97;99.05;47842.00;5012398;28;20163;-82
2022/12/24 01:01:14;;;;;;;160.67;61.10;;;;;;;-141.97;99.07;47803.56;5012464;28;20210;-83
2022/12/24 01:03:40;;;;;;;147.20;58.10;;;;;;;-141.97;99.26;47840.06;5012355;28;20154;-83
2022/12/24 01:06:12;;;;;;;154.47;58.03;;;;;;;-141.97;99.57;47874.69;5011874;28;20493;-82
2022/12/24 01:08:38;;;;;;;150.23;58.03;;;;;;;-141.97;99.41;47874.69;5011954;28;20204;-83
2022/12/24 01:11:05;;;;;;;148.33;58.03;;;;;;;-141.97;99.59;47853.53;5011996;28;20489;-82
2022/12/24 01:13:31;;;;;;;155.43;58.23;;;;;;;-141.97;99.63;47853.53;5011809;28;20163;-82
2022/12/24 01:15:56;;;;;;;145.03;58.13;;;;;;;-141.97;99.58;47738.19;5011827;28;20434;-82
2022/12/24 01:18:23;;;;;;;149.27;56.80;;;;;;;-141.97;99.06;47865.06;5011103;28;20186;-82
2022/12/24 01:20:59;;;;;;;150.00;58.00;;;;;;;-141.97;98.89;47840.06;5011745;28;20237;-82
2022/12/24 01:23:25;;;;;;;145.30;57.77;;;;;;;-141.97;99.09;47822.78;5011893;28;20404;-82
2022/12/24 01:25:51;;;;;;;151.43;59.47;;;;;;;-141.97;98.90;47853.53;5011623;28;20782;-82
2022/12/24 01:28:18;;;;;;;154.77;60.67;;;;;;;-141.97;99.41;47809.31;5011675;28;20987;-82
2022/12/24 01:30:43;;;;;;;159.40;59.23;;;;;;;-141.97;99.20;47886.22;5012078;28;20413;-82
2022/12/24 01:33:09;;;;;;;149.23;56.77;;;;;;;-141.97;99.31;47772.78;5011942;28;20794;-82
2022/12/24 01:35:38;;;;;;;149.50;57.53;;;;;;;-141.97;98.85;47768.94;5018917;28;20169;-84
2022/12/24 01:38:03;;;;;;;153.83;57.63;;;;;;;-141.97;98.82;47865.06;5051028;28;20228;-82
2022/12/24 01:43:26;;;;;;;159.17;61.17;;;;;;;-141.97;98.07;47826.63;5051488;28;20173;-82
2022/12/24 01:45:52;;;;;;;174.70;64.67;;;;;;;-141.97;98.44;47836.22;5051048;28;20407;-82
2022/12/24 01:48:36;;;;;;;230.57;83.70;;;;;;;-141.97;98.32;47888.13;5050851;28;20408;-83
2022/12/24 01:51:04;;;;;;;209.57;76.73;;;;;;;-141.97;98.32;47851.59;5051160;28;20215;-83
2022/12/24 01:53:30;;;;;;;205.97;76.37;;;;;;;-141.97;97.95;47830.47;5050934;28;20404;-82
2022/12/24 01:55:56;;;;;;;225.20;83.47;;;;;;;-141.97;97.76;47811.25;5050998;28;20399;-83
2022/12/24 01:58:25;;;;;;;209.53;77.57;;;;;;;-141.97;97.77;47834.31;5051063;28;20420;-82
2022/12/24 02:00:50;;;;;;;204.10;76.07;;;;;;;-141.97;97.95;47842.00;5050615;28;20196;-82
2022/12/24 02:03:16;;;;;;;175.33;66.30;;;;;;;-141.97;97.86;47849.69;5051120;28;20400;-82
2022/12/24 02:05:46;;;;;;;174.33;66.60;;;;;;;-141.97;97.79;47859.28;5051379;28;20616;-82
2022/12/24 02:08:13;;;;;;;176.43;65.53;;;;;;;-141.97;98.19;47826.63;5051783;28;20173;-82
2022/12/24 02:10:38;;;;;;;182.70;69.17;;;;;;;-141.97;98.20;47828.53;5033195;28;20400;-82
2022/12/24 02:13:05;;;;;;;196.43;70.20;;;;;;;-141.97;98.53;47818.94;5050806;28;20392;-82
2022/12/24 02:15:43;;;;;;;196.70;70.23;;;;;;;-141.97;98.20;47826.63;5050714;28;20161;-83
2022/12/24 02:18:34;;;;;;;193.97;68.60;;;;;;;-141.97;97.46;47876.59;5050803;28;20403;-82
2022/12/24 02:21:02;;;;;;;174.33;63.40;;;;;;;-141.97;97.37;47857.38;4989223;28;20485;-83
2022/12/24 02:23:33;;;;;;;180.07;65.17;;;;;;;-141.97;96.90;47863.13;4973106;28;20992;-82
2022/12/24 02:26:25;;;;;;;182.87;66.10;;;;;;;-141.97;97.04;47847.75;4972913;28;20438;-83
2022/12/24 02:29:09;;;;;;;173.50;65.20;;;;;;;-141.97;97.45;47818.94;5000256;28;20498;-83
2022/12/24 02:32:01;;;;;;;172.23;61.67;;;;;;;-141.97;97.35;47832.38;5001390;28;20457;-83
2022/12/24 02:34:26;;;;;;;177.33;62.97;;;;;;;-141.97;97.65;47855.44;4993160;28;20430;-83
2022/12/24 02:36:57;;;;;;;175.97;65.80;;;;;;;-141.97;97.70;47901.59;4992845;28;20851;-82
2022/12/24 02:39:42;;;;;;;191.40;68.47;;;;;;;-141.97;98.05;47797.78;4993140;28;20605;-82
2022/12/24 02:42:11;;;;;;;148.13;56.37;;;;;;;-141.97;98.10;47843.91;4993076;28;20410;-82
2022/12/24 02:44:46;;;;;;;152.57;60.80;;;;;;;-141.97;97.57;47849.69;4992853;28;20517;-83
2022/12/24 02:47:14;;;;;;;156.00;63.70;;;;;;;-141.97;97.77;47836.22;4993010;28;20456;-83
2022/12/24 02:49:44;;;;;;;173.93;66.43;;;;;;;-141.97;97.76;47807.41;4992579;28;20916;-83
2022/12/24 02:52:34;;;;;;;168.77;68.27;;;;;;;-141.97;97.42;47828.53;4976427;28;20845;-83
2022/12/24 02:55:04;;;;;;;165.80;66.80;;;;;;;-141.97;97.84;47826.63;4992510;28;20402;-82
2022/12/24 02:57:57;;;;;;;169.03;67.37;;;;;;;-141.97;97.98;47834.31;5008295;28;20420;-83
2022/12/24 03:00:24;;;;;;;159.13;63.63;;;;;;;-141.97;98.23;47813.16;5033600;28;20443;-83
2022/12/24 03:03:08;;;;;;;163.13;60.67;;;;;;;-141.97;98.60;47857.38;5034118;28;20905;-83
2022/12/24 03:05:42;;;;;;;159.00;59.87;;;;;;;-141.97;98.89;47868.91;5033556;28;20483;-83
2022/12/24 03:08:41;;;;;;;144.60;54.90;;;;;;;-141.97;98.49;47857.38;5033584;28;20405;-83
2022/12/24 03:11:14;;;;;;;142.00;53.37;;;;;;;-141.97;98.33;47834.31;5033566;28;20459;-83
2022/12/24 03:13:41;;;;;;;141.07;54.10;;;;;;;-141.97;99.41;47830.47;5048924;28;20432;-83
2022/12/24 03:16:10;;;;;;;151.67;56.17;;;;;;;-141.97;99.55;47849.69;5033286;28;20500;-83
2022/12/24 03:18:39;;;;;;;137.17;55.57;;;;;;;-141.97;100.00;47815.09;5033407;28;20472;-82
2022/12/24 03:21:08;;;;;;;139.90;54.57;;;;;;;-141.97;100.00;47822.78;5033335;28;20445;-83
2022/12/24 03:23:34;;;;;;;141.10;53.40;;;;;;;-141.97;100.00;47822.78;5033442;28;20452;-83
2022/12/24 03:26:04;;;;;;;141.03;53.87;;;;;;;-141.97;99.98;47840.06;5033286;28;20405;-83
2022/12/24 03:28:30;;;;;;;129.03;50.40;;;;;;;-141.97;99.39;47809.31;5033193;28;20162;-83
2022/12/24 03:31:04;;;;;;;134.50;51.57;;;;;;;-141.97;98.91;47842.00;5033110;28;20416;-82
2022/12/24 03:33:29;;;;;;;131.00;48.03;;;;;;;-141.97;98.73;47842.00;5031886;28;20174;-83
2022/12/24 03:35:54;;;;;;;126.70;49.50;;;;;;;-141.97;98.58;47880.44;5033282;28;20442;-82
2022/12/24 03:38:20;;;;;;;129.90;49.20;;;;;;;-141.97;99.06;47865.06;5048702;28;20225;-83
2022/12/24 03:40:45;;;;;;;134.20;50.40;;;;;;;-141.97;99.12;47861.22;5057419;28;20306;-83
2022/12/24 03:43:11;;;;;;;137.80;51.80;;;;;;;-141.97;99.24;47828.53;5070655;28;20258;-83
2022/12/24 03:45:36;;;;;;;131.30;50.97;;;;;;;-141.97;99.73;47853.53;5056087;28;20172;-83
2022/12/24 03:48:02;;;;;;;130.37;48.80;;;;;;;-141.97;99.93;47838.16;5055580;28;20169;-83
2022/12/24 03:50:28;;;;;;;133.50;50.20;;;;;;;-141.97;99.95;47830.47;5053339;28;20189;-83
2022/12/24 03:52:54;;;;;;;126.83;49.67;;;;;;;-141.97;100.00;47909.28;5053753;28;20187;-83
2022/12/24 03:55:19;;;;;;;145.50;52.50;;;;;;;-141.97;100.00;47838.16;5055604;28;20216;-83
2022/12/24 03:57:44;;;;;;;138.10;53.40;;;;;;;-141.97;100.00;47843.91;5061770;28;20434;-83
2022/12/24 04:00:10;;;;;;;144.33;50.50;;;;;;;-141.97;100.00;47817.00;5067534;28;20189;-83
2022/12/24 04:02:36;;;;;;;133.93;50.37;;;;;;;-141.97;100.00;47888.13;5056322;28;20292;-83
2022/12/24 04:05:01;;;;;;;133.17;51.67;;;;;;;-141.97;100.00;47809.31;5054385;28;20169;-83
2022/12/24 04:07:26;;;;;;;136.30;54.33;;;;;;;-141.97;100.00;47759.34;5054410;28;20685;-83
2022/12/24 04:09:52;;;;;;;143.93;53.63;;;;;;;-141.97;100.00;47866.97;5034854;28;20173;-83
2022/12/24 04:12:17;;;;;;;217.90;77.93;;;;;;;-141.97;100.00;47832.38;5053076;28;20563;-83
2022/12/24 04:14:42;;;;;;;175.63;63.27;;;;;;;-141.97;100.00;47840.06;5034446;28;20256;-82
2022/12/24 04:17:08;;;;;;;151.73;56.67;;;;;;;-141.97;100.00;47843.91;5052535;28;20579;-83
2022/12/24 04:19:33;;;;;;;144.17;53.67;;;;;;;-141.97;100.00;47820.84;5039134;28;20276;-83
2022/12/24 04:21:59;;;;;;;140.93;53.63;;;;;;;-141.97;100.00;47818.94;5032411;28;20250;-83
2022/12/24 04:24:24;;;;;;;153.73;57.27;;;;;;;-141.97;99.94;47888.13;5032287;28;20166;-83
2022/12/24 04:26:50;;;;;;;182.10;64.73;;;;;;;-141.97;99.96;47813.16;5032088;28;20174;-83
2022/12/24 04:29:15;;;;;;;163.00;61.97;;;;;;;-141.97;99.70;47907.34;5032416;28;20203;-82
2022/12/24 04:31:40;;;;;;;192.43;69.00;;;;;;;-141.97;100.00;47826.63;5032985;28;20642;-83
2022/12/24 04:34:06;;;;;;;193.20;69.97;;;;;;;-141.97;99.64;47803.56;5032231;28;20220;-83
2022/12/24 04:36:31;;;;;;;166.03;65.00;;;;;;;-141.97;99.35;47828.53;5031678;28;20170;-83
2022/12/24 04:38:57;;;;;;;173.87;63.90;;;;;;;-141.97;99.29;47836.22;5013977;28;20176;-83
2022/12/24 04:41:23;;;;;;;172.10;65.13;;;;;;;-141.97;99.08;47818.94;5013642;28;20278;-83
2022/12/24 04:43:49;;;;;;;156.83;60.63;;;;;;;-141.97;98.84;47826.63;5031508;28;20535;-83
2022/12/24 04:46:17;;;;;;;157.03;57.63;;;;;;;-141.97;99.07;47865.06;5031360;28;20405;-83
2022/12/24 04:48:45;;;;;;;166.53;63.37;;;;;;;-141.97;98.79;47845.84;5031345;28;20433;-83
2022/12/24 04:51:11;;;;;;;160.63;60.80;;;;;;;-141.97;98.75;47824.69;5031336;28;20419;-84
2022/12/24 04:53:38;;;;;;;167.17;62.03;;;;;;;-141.97;98.64;47811.25;5031484;28;20491;-83
2022/12/24 04:56:07;;;;;;;155.47;57.60;;;;;;;-141.97;98.72;47868.91;5031609;28;20458;-83
2022/12/24 04:58:33;;;;;;;164.60;58.83;;;;;;;-141.97;98.44;47842.00;5034319;28;20785;-84
2022/12/24 05:01:23;;;;;;;150.80;54.83;;;;;;;-141.97;98.00;47834.31;5031744;28;20967;-84
2022/12/24 05:03:49;;;;;;;174.23;63.20;;;;;;;-141.97;98.49;47786.25;4932019;29;20196;-84
2022/12/24 05:06:18;;;;;;;204.70;79.53;;;;;;;-141.97;98.28;47897.75;4947982;29;20433;-85
2022/12/24 05:08:43;;;;;;;239.13;92.43;;;;;;;-141.97;98.23;47832.38;4931867;29;20757;-84
2022/12/24 05:11:13;;;;;;;241.00;91.10;;;;;;;-141.97;98.30;47834.31;4931742;29;20505;-84
2022/12/24 05:13:40;;;;;;;296.10;106.33;;;;;;;-141.97;98.78;47792.03;4931888;29;20158;-84
2022/12/24 05:16:06;;;;;;;254.47;93.97;;;;;;;-141.97;98.49;47868.91;4947740;29;20445;-83
2022/12/24 05:18:31;;;;;;;271.67;100.77;;;;;;;-141.97;98.32;47843.91;4932188;29;20505;-84
2022/12/24 05:20:56;;;;;;;345.80;124.00;;;;;;;-141.97;98.54;47830.47;4931590;29;20701;-84
2022/12/24 05:26:29;;;;;;;371.20;138.70;;;;;;;-141.97;97.88;47820.84;4931906;29;20276;-82
2022/12/24 05:28:57;;;;;;;437.67;172.50;;;;;;;-141.97;97.56;47859.28;4931901;29;20511;-82
2022/12/24 05:31:25;;;;;;;475.90;204.57;;;;;;;-141.97;97.73;47851.59;4931845;29;20394;-84
2022/12/24 05:33:53;;;;;;;530.63;234.93;;;;;;;-141.97;97.50;47838.16;4931714;29;20812;-84
2022/12/24 05:36:18;;;;;;;598.27;281.53;;;;;;;-141.97;97.27;47767.03;4947536;29;20425;-83
2022/12/24 05:38:43;;;;;;;560.53;263.63;;;;;;;-141.97;97.21;47863.13;4931327;29;21056;-82
2022/12/24 05:41:09;;;;;;;650.30;314.37;;;;;;;-141.97;97.18;47870.81;4996400;28;20274;-84
2022/12/24 05:43:38;;;;;;;645.80;300.47;;;;;;;-141.97;97.04;47851.59;5031558;28;20169;-83
2022/12/24 05:46:09;;;;;;;523.23;230.80;;;;;;;-141.97;97.13;47836.22;5031337;28;20201;-82
2022/12/24 05:48:35;;;;;;;512.57;223.13;;;;;;;-141.97;97.38;47797.78;5031268;28;20447;-83
2022/12/24 05:51:06;;;;;;;547.73;248.13;;;;;;;-141.97;97.18;47842.00;5030837;28;20530;-83
2022/12/24 05:53:32;;;;;;;496.67;218.67;;;;;;;-141.97;96.89;47834.31;5031396;28;20208;-82
2022/12/24 05:56:03;;;;;;;525.80;234.43;;;;;;;-141.97;96.96;47747.81;5030849;28;20466;-82
2022/12/24 05:58:29;;;;;;;409.13;155.13;;;;;;;-141.97;97.07;47855.44;5030990;28;20408;-83
2022/12/24 06:00:54;;;;;;;325.37;123.33;;;;;;;-141.97;97.40;47836.22;5031075;28;20455;-85
2022/12/24 06:03:19;;;;;;;308.33;117.70;;;;;;;-141.97;97.53;47811.25;5033175;28;20166;-84
2022/12/24 06:05:45;;;;;;;305.37;110.93;;;;;;;-141.97;97.34;47903.50;5012819;28;20283;-84
2022/12/24 06:08:10;;;;;;;227.17;82.97;;;;;;;-141.97;97.09;47811.25;5000000;28;20187;-83
2022/12/24 06:10:35;;;;;;;272.93;105.10;;;;;;;-141.97;96.59;47849.69;5031982;28;20265;-83
2022/12/24 06:13:01;;;;;;;196.00;74.30;;;;;;;-141.97;96.59;47799.72;5033918;28;20186;-84
2022/12/24 06:15:26;;;;;;;191.60;73.17;;;;;;;-141.97;96.20;47886.22;5033898;28;20213;-83
2022/12/24 06:17:52;;;;;;;180.53;65.57;;;;;;;-141.97;95.49;47886.22;5034296;28;20178;-83
2022/12/24 06:20:17;;;;;;;160.07;58.67;;;;;;;-141.97;95.14;47855.44;5033868;28;20190;-84
2022/12/24 06:22:42;;;;;;;149.10;57.77;;;;;;;-141.97;95.57;47822.78;5034272;28;20189;-83
2022/12/24 06:25:08;;;;;;;187.77;70.30;;;;;;;-141.97;95.68;47811.25;5034676;28;20168;-83
2022/12/24 06:27:33;;;;;;;144.20;53.40;;;;;;;-141.97;95.95;47809.31;5033855;28;20539;-83
2022/12/24 06:29:59;;;;;;;140.37;51.73;;;;;;;-141.97;93.75;47836.22;5034102;28;20181;-83
2022/12/24 06:32:24;;;;;;;139.17;51.53;;;;;;;-141.97;90.13;47874.69;5034008;28;20196;-85
2022/12/24 06:34:49;;;;;;;127.83;50.13;;;;;;;-141.97;85.49;47830.47;5049226;28;20182;-83
2022/12/24 06:37:17;;;;;;;151.80;56.57;;;;;;;-141.97;82.51;47803.56;5034087;28;20772;-84
2022/12/24 06:39:46;;;;;;;145.93;56.40;;;;;;;-141.97;80.43;47861.22;5033540;28;20221;-83
2022/12/24 06:42:12;;;;;;;144.90;54.70;;;;;;;-141.97;80.13;47822.78;5048858;28;20405;-83
2022/12/24 06:44:37;;;;;;;204.67;82.80;;;;;;;-141.97;80.84;47811.25;5033772;28;20464;-83
2022/12/24 06:47:03;;;;;;;268.80;108.43;;;;;;;-141.97;81.33;47726.66;5033905;28;20439;-84
2022/12/24 06:49:28;;;;;;;221.53;84.63;;;;;;;-141.97;82.60;47751.66;5033444;28;20172;-84
2022/12/24 06:51:53;;;;;;;215.57;85.87;;;;;;;-141.97;83.48;47817.00;5033676;28;20170;-84
2022/12/24 06:54:19;;;;;;;355.40;139.50;;;;;;;-141.97;83.62;47780.47;5035668;28;20162;-84
2022/12/24 06:56:44;;;;;;;277.63;108.57;;;;;;;-141.97;84.32;47905.44;5036830;28;20250;-85
2022/12/24 06:59:10;;;;;;;281.37;112.97;;;;;;;-141.97;76.33;47817.00;5034553;28;20642;-82
2022/12/24 07:01:35;;;;;;;393.00;169.57;;;;;;;-141.97;66.22;47859.28;5033529;28;20223;-82
2022/12/24 07:04:00;;;;;;;348.57;141.30;;;;;;;-141.97;60.00;47957.34;5042030;28;20162;-83
2022/12/24 07:06:28;;;;;;;300.33;127.63;;;;;;;-141.97;56.27;47742.03;5051134;28;20654;-83
2022/12/24 07:08:54;;;;;;;278.73;120.43;;;;;;;-141.97;54.25;47815.09;5037780;28;20166;-83
2022/12/24 07:11:20;;;;;;;278.37;119.03;;;;;;;-141.97;51.21;47838.16;5017569;28;20174;-82
2022/12/24 07:13:46;;;;;;;313.80;126.73;;;;;;;-141.97;49.15;47857.38;5034053;28;20163;-82
2022/12/24 07:16:11;;;;;;;653.13;339.87;;;;;;;-141.97;48.79;47865.06;5033392;28;20245;-83
2022/12/24 07:18:36;;;;;;;512.13;260.17;;;;;;;-141.97;48.12;47801.63;5033948;28;20580;-83
2022/12/24 07:21:06;;;;;;;484.30;251.30;;;;;;;-141.97;47.70;47803.56;5052219;28;20209;-83
2022/12/24 07:23:31;;;;;;;498.40;247.10;;;;;;;-141.97;48.09;47743.97;5049732;28;20174;-82
2022/12/24 07:26:01;;;;;;;446.13;213.03;;;;;;;-141.97;47.45;47784.34;5036759;28;20166;-82
2022/12/24 07:28:27;;;;;;;244.07;115.43;;;;;;;-141.97;47.51;47938.09;5036677;28;20162;-84
2022/12/24 07:30:53;;;;;;;315.10;145.03;;;;;;;-141.97;47.75;47797.78;5042029;28;20166;-84
2022/12/24 07:33:18;;;;;;;330.73;147.30;;;;;;;-141.97;50.70;47736.28;5034987;28;20227;-83
2022/12/24 07:35:43;;;;;;;384.70;170.53;;;;;;;-141.97;53.99;47793.94;5034344;28;20229;-84
2022/12/24 07:38:09;;;;;;;356.70;154.83;;;;;;;-141.97;57.48;47820.84;5033724;28;20667;-84
2022/12/24 07:40:34;;;;;;;360.67;157.23;;;;;;;-141.97;58.85;47765.09;5033643;28;20194;-84
2022/12/24 07:43:00;;;;;;;266.00;118.07;;;;;;;-141.97;60.75;47803.56;5033591;28;20591;-84
2022/12/24 07:45:25;;;;;;;386.00;164.63;;;;;;;-141.97;61.19;47792.03;5033494;28;20170;-84
2022/12/24 07:47:50;;;;;;;330.83;140.73;;;;;;;-141.97;61.57;47828.53;5033412;28;20193;-83
2022/12/24 07:50:16;;;;;;;276.87;120.60;;;;;;;-141.97;61.23;47830.47;5032844;28;20162;-83
2022/12/24 07:52:41;;;;;;;264.20;118.93;;;;;;;-141.97;62.05;47790.09;5015293;28;20173;-82
2022/12/24 07:55:07;;;;;;;233.43;105.63;;;;;;;-141.97;62.64;47807.41;5032706;28;20177;-83
2022/12/24 07:57:32;;;;;;;195.13;85.83;;;;;;;-141.97;63.66;47826.63;5032868;28;20594;-83
2022/12/24 07:59:58;;;;;;;182.93;82.37;;;;;;;-141.97;64.07;47822.78;5033068;28;20718;-83
2022/12/24 08:02:23;;;;;;;170.90;76.43;;;;;;;-141.97;65.98;47815.09;5033612;28;20639;-83
2022/12/24 08:04:48;;;;;;;174.60;75.90;;;;;;;-141.97;66.38;47799.72;5032888;28;20166;-83
2022/12/24 08:07:14;;;;;;;179.53;80.67;;;;;;;-141.97;67.16;47768.94;5047846;28;20178;-84
2022/12/24 08:09:39;;;;;;;179.57;81.07;;;;;;;-141.97;67.69;47842.00;5032666;28;20162;-83
2022/12/24 08:12:05;;;;;;;195.50;85.17;;;;;;;-141.97;67.91;47809.31;5032462;28;20162;-83
2022/12/24 08:14:30;;;;;;;207.13;86.33;;;;;;;-141.97;68.67;47759.34;5032069;28;20158;-83
2022/12/24 08:16:56;;;;;;;204.90;89.57;;;;;;;-141.97;69.25;47815.09;5032119;28;20185;-83
2022/12/24 08:19:22;;;;;;;216.77;92.53;;;;;;;-141.97;70.89;47784.34;5031821;28;20229;-83
2022/12/24 08:21:48;;;;;;;128.77;59.33;;;;;;;-141.97;71.28;47813.16;5032274;28;20162;-83
2022/12/24 08:24:14;;;;;;;181.30;73.63;;;;;;;-141.97;72.52;47803.56;5032325;28;20272;-83
2022/12/24 08:26:39;;;;;;;96.30;42.80;;;;;;;-141.97;72.71;47842.00;5031477;28;20197;-84
2022/12/24 08:29:05;;;;;;;177.70;75.13;;;;;;;-141.97;73.59;47720.91;5032309;28;20249;-82
2022/12/24 08:31:35;;;;;;;83.13;42.03;;;;;;;-141.97;73.41;47780.47;5031877;28;20180;-82
2022/12/24 08:34:06;;;;;;;66.20;32.97;;;;;;;-141.97;73.48;47838.16;5031688;28;20158;-83
2022/12/24 08:36:32;;;;;;;74.77;37.20;;;;;;;-141.97;73.86;47811.25;5031989;28;20559;-82
2022/12/24 08:38:58;;;;;;;59.23;28.93;;;;;;;-141.97;72.78;47868.91;5031542;28;20162;-82
2022/12/24 08:41:23;;;;;;;235.97;102.47;;;;;;;-141.97;72.71;47893.91;5032401;28;20198;-85
2022/12/24 08:43:49;;;;;;;175.80;83.90;;;;;;;-141.97;73.57;47822.78;5033263;28;20158;-86
2022/12/24 08:46:14;;;;;;;121.80;57.43;;;;;;;-141.97;73.63;47778.56;5048655;28;20247;-86
2022/12/24 08:48:39;;;;;;;87.07;42.30;;;;;;;-141.97;73.57;47799.72;5032682;28;20162;-86
2022/12/24 08:51:10;;;;;;;76.73;38.23;;;;;;;-141.97;73.73;47784.34;5033318;28;20163;-86
2022/12/24 08:53:36;;;;;;;80.60;39.93;;;;;;;-141.97;73.69;47826.63;5014495;28;20599;-84
2022/12/24 08:56:03;;;;;;;101.80;52.67;;;;;;;-141.97;73.52;47832.38;5014387;28;20166;-84
2022/12/24 08:58:29;;;;;;;78.70;38.67;;;;;;;-141.97;70.21;47780.47;5032103;28;20165;-86
2022/12/24 09:00:55;;;;;;;147.10;55.70;;;;;;;-141.97;67.54;47765.09;5013823;28;20193;-84
2022/12/24 09:03:20;;;;;;;105.37;45.00;;;;;;;-141.97;68.76;47901.59;5047295;28;20594;-85
2022/12/24 09:05:46;;;;;;;174.37;70.73;;;;;;;-141.97;70.18;47757.41;5032091;28;20158;-85
2022/12/24 09:08:12;;;;;;;183.37;75.73;;;;;;;-141.97;70.53;47788.19;5013975;28;20568;-85
2022/12/24 09:10:37;;;;;;;214.90;87.93;;;;;;;-141.97;72.30;47861.22;5047261;28;20169;-86
2022/12/24 09:13:02;;;;;;;262.67;94.87;;;;;;;-141.97;69.96;47751.66;5033827;28;20158;-84
2022/12/24 09:15:28;;;;;;;73.27;29.83;;;;;;;-141.97;67.64;47926.56;5037962;28;20173;-85
2022/12/24 09:17:54;;;;;;;52.23;25.67;;;;;;;-141.97;68.94;47905.44;5033276;28;20162;-85
2022/12/24 09:20:19;;;;;;;66.80;30.17;;;;;;;-141.97;68.39;47863.13;5013881;28;20233;-85
2022/12/24 09:22:44;;;;;;;62.33;29.93;;;;;;;-141.97;65.38;47742.03;5031342;28;20169;-85
2022/12/24 09:25:10;;;;;;;68.23;32.23;;;;;;;-141.97;62.65;47895.81;5013615;28;20252;-85
2022/12/24 09:27:36;;;;;;;53.40;26.37;;;;;;;-141.97;63.18;47799.72;5031224;28;20162;-85
2022/12/24 09:30:03;;;;;;;64.17;32.77;;;;;;;-141.97;64.83;47817.00;5031615;28;20158;-85
2022/12/24 09:32:28;;;;;;;72.33;37.53;;;;;;;-141.97;64.88;47857.38;5013735;28;20257;-85
2022/12/24 09:34:54;;;;;;;68.63;34.00;;;;;;;-141.97;62.86;47768.94;5031134;28;20365;-87
2022/12/24 09:37:19;;;;;;;77.30;38.57;;;;;;;-141.97;61.88;47722.81;5029926;28;20656;-84
2022/12/24 09:39:44;;;;;;;87.20;44.80;;;;;;;-141.97;60.81;47799.72;5034565;28;20182;-85
2022/12/24 09:42:50;;;;;;;84.17;44.90;;;;;;;-141.97;61.16;47847.75;5035693;28;20201;-86
2022/12/24 09:45:26;;;;;;;86.90;42.63;;;;;;;-141.97;61.08;47784.34;5034799;28;20537;-84
2022/12/24 09:47:56;;;;;;;138.30;65.13;;;;;;;-141.97;60.94;47853.53;5035177;28;20207;-86
2022/12/24 09:50:39;;;;;;;97.77;47.10;;;;;;;-141.97;61.02;47830.47;5035417;28;20154;-85
2022/12/24 09:53:40;;;;;;;88.30;43.37;;;;;;;-141.97;60.17;47857.38;5016627;28;20288;-87
2022/12/24 09:56:14;;;;;;;62.80;32.13;;;;;;;-141.97;58.88;47872.75;4974067;28;20188;-85
2022/12/24 09:58:45;;;;;;;55.67;30.37;;;;;;;-141.97;58.03;47849.69;4987357;28;20171;-85
2022/12/24 10:01:12;;;;;;;65.10;33.63;;;;;;;-141.97;58.38;47807.41;4975712;28;20209;-84
2022/12/24 10:03:42;;;;;;;135.63;55.83;;;;;;;-141.97;58.33;47776.63;4987440;28;20254;-84
2022/12/24 10:06:13;;;;;;;106.20;48.67;;;;;;;-141.97;59.10;47790.09;4982880;28;20573;-84
2022/12/24 10:08:58;;;;;;;88.97;44.53;;;;;;;-141.97;58.87;47811.25;4981572;28;20179;-84
2022/12/24 10:11:47;;;;;;;98.77;49.20;;;;;;;-141.97;58.88;47832.38;4980789;28;20547;-84
2022/12/24 10:14:47;;;;;;;108.60;51.97;;;;;;;-141.97;58.31;47803.56;4974984;28;20202;-83
2022/12/24 10:17:29;;;;;;;80.93;40.47;;;;;;;-141.97;58.58;47803.56;4973649;28;20172;-84
2022/12/24 10:20:03;;;;;;;68.00;33.77;;;;;;;-141.97;58.43;47826.63;4973706;28;20292;-84
2022/12/24 10:22:47;;;;;;;81.90;44.07;;;;;;;-141.97;58.87;47840.06;4973213;28;20243;-85
2022/12/24 10:25:50;;;;;;;83.47;43.77;;;;;;;-141.97;59.05;47815.09;4973410;28;20597;-84
2022/12/24 10:28:20;;;;;;;67.93;36.60;;;;;;;-141.97;58.65;47832.38;4916010;29;20186;-84
2022/12/24 10:30:57;;;;;;;62.30;34.63;;;;;;;-141.97;58.39;47820.84;4900914;29;20186;-84
2022/12/24 10:33:37;;;;;;;47.63;26.13;;;;;;;-141.97;57.63;47818.94;4973917;28;20195;-84
2022/12/24 10:36:03;;;;;;;55.33;28.80;;;;;;;-141.97;57.39;47817.00;4983585;28;20195;-84
2022/12/24 10:38:31;;;;;;;46.80;26.20;;;;;;;-141.97;57.69;47803.56;4978450;28;20223;-84
2022/12/24 10:40:59;;;;;;;48.27;27.07;;;;;;;-141.97;57.03;47922.72;4975472;28;20219;-84
2022/12/24 10:43:27;;;;;;;38.40;22.73;;;;;;;-141.97;56.41;47830.47;4977372;28;20183;-83
2022/12/24 10:45:55;;;;;;;40.30;22.57;;;;;;;-141.97;55.81;47745.88;4977224;28;20191;-84
2022/12/24 10:48:38;;;;;;;39.77;21.20;;;;;;;-141.97;55.61;47711.28;4979385;28;20191;-84
2022/12/24 10:51:06;;;;;;;37.20;21.73;;;;;;;-141.97;55.11;47836.22;4987534;28;20188;-84
2022/12/24 10:53:46;;;;;;;42.93;21.90;;;;;;;-141.97;54.71;47830.47;4979914;28;20278;-84
2022/12/24 10:56:15;;;;;;;39.50;22.43;;;;;;;-141.97;54.47;47838.16;4979824;28;20206;-84
2022/12/24 10:58:49;;;;;;;43.73;24.40;;;;;;;-141.97;54.34;47792.03;4976943;28;20192;-85
2022/12/24 11:01:15;;;;;;;49.80;28.50;;;;;;;-141.97;55.06;47807.41;4992062;28;20247;-84
2022/12/24 11:03:41;;;;;;;46.63;26.20;;;;;;;-141.97;54.90;47822.78;4975076;28;20236;-84
2022/12/24 11:06:19;;;;;;;46.90;23.60;;;;;;;-141.97;54.68;47743.97;5026523;28;20190;-84
2022/12/24 11:08:46;;;;;;;44.13;25.27;;;;;;;-141.97;54.35;47788.19;5035042;28;20189;-84